EGTK/OXF METAR and TAF weather

Enter ICAO airport designator
Station Type Date Time Source
EGTK METAR 2019/05/25 09:20 UTC NOAA

EGTK 250920Z 29007KT 240V340 9999 SCT033 18/11 Q1019


Station Type Date Time Source
EGTK Decoded METAR 2019/05/25 09:20 UTC NOAA

Station name not available
May 25, 2019 - 05:20 AM EDT / 2019.05.25 0920 UTC
Wind: from the WNW (290 degrees) at 8 MPH (7 KT) (direction variable):0
Visibility: greater than 7 mile(s):0
Sky conditions: partly cloudy
Temperature: 64 F (18 C)
Dew Point: 51 F (11 C)
Relative Humidity: 63%
Pressure (altimeter): 30.09 in. Hg (1019 hPa)
ob: EGTK 250920Z 29007KT 240V340 9999 SCT033 18/11 Q1019
cycle: 9

Station Type Date Time Source
EGTK TAF UTC NOAA

Error!

Example: see airport list